sensor_id;sensor_type;location;lat;lon;timestamp;temperature;humidity
10089;DHT22;51898;49.864;8.550;2024-02-15T00:00:41;10.20;100.00
10089;DHT22;51898;49.864;8.550;2024-02-15T00:03:46;10.20;100.00
10089;DHT22;51898;49.864;8.550;2024-02-15T00:06:51;10.20;100.00
10089;DHT22;51898;49.864;8.550;2024-02-15T00:09:53;10.20;100.00
10089;DHT22;51898;49.864;8.550;2024-02-15T00:12:58;10.20;100.00
10089;DHT22;51898;49.864;8.550;2024-02-15T00:16:00;10.20;100.00
10089;DHT22;51898;49.864;8.550;2024-02-15T00:19:02;10.20;100.00
10089;DHT22;51898;49.864;8.550;2024-02-15T00:22:04;10.20;100.00
10089;DHT22;51898;49.864;8.550;2024-02-15T00:25:06;10.20;100.00
10089;DHT22;51898;49.864;8.550;2024-02-15T00:28:13;10.20;100.00
10089;DHT22;51898;49.864;8.550;2024-02-15T00:31:15;10.10;100.00
10089;DHT22;51898;49.864;8.550;2024-02-15T00:34:17;10.10;100.00
10089;DHT22;51898;49.864;8.550;2024-02-15T00:37:21;10.10;100.00
10089;DHT22;51898;49.864;8.550;2024-02-15T00:40:22;10.10;100.00
10089;DHT22;51898;49.864;8.550;2024-02-15T00:43:26;10.20;100.00
10089;DHT22;51898;49.864;8.550;2024-02-15T00:46:28;10.20;100.00
10089;DHT22;51898;49.864;8.550;2024-02-15T00:49:30;10.20;100.00
10089;DHT22;51898;49.864;8.550;2024-02-15T00:52:34;10.20;100.00
10089;DHT22;51898;49.864;8.550;2024-02-15T00:55:35;10.20;100.00
10089;DHT22;51898;49.864;8.550;2024-02-15T00:58:37;10.10;100.00
10089;DHT22;51898;49.864;8.550;2024-02-15T01:01:39;10.10;100.00
10089;DHT22;51898;49.864;8.550;2024-02-15T01:04:42;10.10;100.00
10089;DHT22;51898;49.864;8.550;2024-02-15T01:07:44;10.10;100.00
10089;DHT22;51898;49.864;8.550;2024-02-15T01:10:46;10.10;100.00
10089;DHT22;51898;49.864;8.550;2024-02-15T01:13:48;10.00;100.00
10089;DHT22;51898;49.864;8.550;2024-02-15T01:16:50;10.10;100.00
10089;DHT22;51898;49.864;8.550;2024-02-15T01:19:52;10.10;100.00
10089;DHT22;51898;49.864;8.550;2024-02-15T01:22:55;10.10;100.00
10089;DHT22;51898;49.864;8.550;2024-02-15T01:25:56;10.20;100.00
10089;DHT22;51898;49.864;8.550;2024-02-15T01:28:59;10.20;100.00
10089;DHT22;51898;49.864;8.550;2024-02-15T01:32:01;10.20;100.00
10089;DHT22;51898;49.864;8.550;2024-02-15T01:35:07;10.30;100.00
10089;DHT22;51898;49.864;8.550;2024-02-15T01:38:09;10.20;100.00
10089;DHT22;51898;49.864;8.550;2024-02-15T01:41:12;10.30;100.00
10089;DHT22;51898;49.864;8.550;2024-02-15T01:44:13;10.30;100.00
10089;DHT22;51898;49.864;8.550;2024-02-15T01:47:17;10.30;100.00
10089;DHT22;51898;49.864;8.550;2024-02-15T01:50:22;10.30;100.00
10089;DHT22;51898;49.864;8.550;2024-02-15T01:53:25;10.40;100.00
10089;DHT22;51898;49.864;8.550;2024-02-15T01:56:29;10.40;100.00
10089;DHT22;51898;49.864;8.550;2024-02-15T01:59:32;10.40;100.00
10089;DHT22;51898;49.864;8.550;2024-02-15T02:02:34;10.40;100.00
10089;DHT22;51898;49.864;8.550;2024-02-15T02:05:37;10.40;100.00
10089;DHT22;51898;49.864;8.550;2024-02-15T02:08:39;10.40;100.00
10089;DHT22;51898;49.864;8.550;2024-02-15T02:11:45;10.50;100.00
10089;DHT22;51898;49.864;8.550;2024-02-15T02:14:48;10.50;100.00
10089;DHT22;51898;49.864;8.550;2024-02-15T02:17:51;10.40;100.00
10089;DHT22;51898;49.864;8.550;2024-02-15T02:20:53;10.50;100.00
10089;DHT22;51898;49.864;8.550;2024-02-15T02:23:57;10.40;100.00
10089;DHT22;51898;49.864;8.550;2024-02-15T02:26:59;10.50;100.00
10089;DHT22;51898;49.864;8.550;2024-02-15T02:30:11;10.50;100.00
10089;DHT22;51898;49.864;8.550;2024-02-15T02:33:17;10.50;100.00
10089;DHT22;51898;49.864;8.550;2024-02-15T02:36:24;10.50;100.00
10089;DHT22;51898;49.864;8.550;2024-02-15T02:39:28;10.50;100.00
10089;DHT22;51898;49.864;8.550;2024-02-15T02:42:33;10.50;100.00
10089;DHT22;51898;49.864;8.550;2024-02-15T02:45:34;10.50;100.00
10089;DHT22;51898;49.864;8.550;2024-02-15T02:48:37;10.50;100.00
10089;DHT22;51898;49.864;8.550;2024-02-15T02:51:39;10.50;100.00
10089;DHT22;51898;49.864;8.550;2024-02-15T02:54:41;10.50;100.00
10089;DHT22;51898;49.864;8.550;2024-02-15T02:57:43;10.50;100.00
10089;DHT22;51898;49.864;8.550;2024-02-15T03:00:45;10.50;100.00
10089;DHT22;51898;49.864;8.550;2024-02-15T03:03:48;10.50;100.00
10089;DHT22;51898;49.864;8.550;2024-02-15T03:06:49;10.50;100.00
10089;DHT22;51898;49.864;8.550;2024-02-15T03:09:53;10.50;100.00
10089;DHT22;51898;49.864;8.550;2024-02-15T03:12:54;10.50;100.00
10089;DHT22;51898;49.864;8.550;2024-02-15T03:15:57;10.50;100.00
10089;DHT22;51898;49.864;8.550;2024-02-15T03:18:58;10.50;100.00
10089;DHT22;51898;49.864;8.550;2024-02-15T03:22:01;10.50;100.00
10089;DHT22;51898;49.864;8.550;2024-02-15T03:25:03;10.50;100.00
10089;DHT22;51898;49.864;8.550;2024-02-15T03:28:08;10.50;100.00
10089;DHT22;51898;49.864;8.550;2024-02-15T03:31:10;10.60;100.00
10089;DHT22;51898;49.864;8.550;2024-02-15T03:34:11;10.60;100.00
10089;DHT22;51898;49.864;8.550;2024-02-15T03:37:16;10.50;100.00
10089;DHT22;51898;49.864;8.550;2024-02-15T03:40:21;10.50;100.00
10089;DHT22;51898;49.864;8.550;2024-02-15T03:43:23;10.50;100.00
10089;DHT22;51898;49.864;8.550;2024-02-15T03:46:25;10.50;100.00
10089;DHT22;51898;49.864;8.550;2024-02-15T03:49:27;10.60;100.00
10089;DHT22;51898;49.864;8.550;2024-02-15T03:52:29;10.50;100.00
10089;DHT22;51898;49.864;8.550;2024-02-15T03:55:31;10.50;100.00
10089;DHT22;51898;49.864;8.550;2024-02-15T03:58:34;10.50;99.90
10089;DHT22;51898;49.864;8.550;2024-02-15T04:01:38;10.50;99.90
10089;DHT22;51898;49.864;8.550;2024-02-15T04:04:40;10.50;99.80
10089;DHT22;51898;49.864;8.550;2024-02-15T04:07:45;10.50;99.80
10089;DHT22;51898;49.864;8.550;2024-02-15T04:10:46;10.50;99.80
10089;DHT22;51898;49.864;8.550;2024-02-15T04:13:53;10.50;99.80
10089;DHT22;51898;49.864;8.550;2024-02-15T04:16:54;10.40;99.80
10089;DHT22;51898;49.864;8.550;2024-02-15T04:19:56;10.40;99.90
10089;DHT22;51898;49.864;8.550;2024-02-15T04:22:58;10.40;99.80
10089;DHT22;51898;49.864;8.550;2024-02-15T04:26:01;10.50;99.80
10089;DHT22;51898;49.864;8.550;2024-02-15T04:29:03;10.50;99.60
10089;DHT22;51898;49.864;8.550;2024-02-15T04:32:12;10.50;99.70
10089;DHT22;51898;49.864;8.550;2024-02-15T04:35:14;10.50;99.40
10089;DHT22;51898;49.864;8.550;2024-02-15T04:38:17;10.50;99.20
10089;DHT22;51898;49.864;8.550;2024-02-15T04:41:21;10.60;99.20
10089;DHT22;51898;49.864;8.550;2024-02-15T04:44:24;10.60;99.00
10089;DHT22;51898;49.864;8.550;2024-02-15T04:47:28;10.60;99.00
10089;DHT22;51898;49.864;8.550;2024-02-15T04:50:32;10.60;98.80
10089;DHT22;51898;49.864;8.550;2024-02-15T04:53:33;10.60;98.60
10089;DHT22;51898;49.864;8.550;2024-02-15T04:56:35;10.60;98.30
10089;DHT22;51898;49.864;8.550;2024-02-15T04:59:37;10.70;98.20
10089;DHT22;51898;49.864;8.550;2024-02-15T05:02:39;10.60;98.10
10089;DHT22;51898;49.864;8.550;2024-02-15T05:05:43;10.60;98.00
10089;DHT22;51898;49.864;8.550;2024-02-15T05:08:45;10.60;97.80
10089;DHT22;51898;49.864;8.550;2024-02-15T05:11:48;10.70;97.80
10089;DHT22;51898;49.864;8.550;2024-02-15T05:14:51;10.70;97.80
10089;DHT22;51898;49.864;8.550;2024-02-15T05:17:53;10.70;97.60
10089;DHT22;51898;49.864;8.550;2024-02-15T05:20:55;10.70;97.60
10089;DHT22;51898;49.864;8.550;2024-02-15T05:23:57;10.70;97.50
10089;DHT22;51898;49.864;8.550;2024-02-15T05:26:59;10.70;97.40
10089;DHT22;51898;49.864;8.550;2024-02-15T05:30:02;10.70;97.30
10089;DHT22;51898;49.864;8.550;2024-02-15T05:33:06;10.70;97.20
10089;DHT22;51898;49.864;8.550;2024-02-15T05:36:12;10.70;97.20
10089;DHT22;51898;49.864;8.550;2024-02-15T05:39:15;10.70;97.00
10089;DHT22;51898;49.864;8.550;2024-02-15T05:42:17;10.70;96.90
10089;DHT22;51898;49.864;8.550;2024-02-15T05:48:27;10.80;96.70
10089;DHT22;51898;49.864;8.550;2024-02-15T05:51:29;10.80;96.70
10089;DHT22;51898;49.864;8.550;2024-02-15T05:54:32;10.80;96.70
10089;DHT22;51898;49.864;8.550;2024-02-15T05:57:34;10.80;96.60
10089;DHT22;51898;49.864;8.550;2024-02-15T06:00:36;10.70;96.60
10089;DHT22;51898;49.864;8.550;2024-02-15T06:03:40;10.80;96.70
10089;DHT22;51898;49.864;8.550;2024-02-15T06:06:46;10.70;96.60
10089;DHT22;51898;49.864;8.550;2024-02-15T06:09:51;10.80;96.50
10089;DHT22;51898;49.864;8.550;2024-02-15T06:12:52;10.80;96.50
10089;DHT22;51898;49.864;8.550;2024-02-15T06:15:55;10.80;96.50
10089;DHT22;51898;49.864;8.550;2024-02-15T06:18:56;10.70;96.40
10089;DHT22;51898;49.864;8.550;2024-02-15T06:21:59;10.80;96.40
10089;DHT22;51898;49.864;8.550;2024-02-15T06:25:02;10.80;96.30
10089;DHT22;51898;49.864;8.550;2024-02-15T06:28:05;10.80;96.10
10089;DHT22;51898;49.864;8.550;2024-02-15T06:31:21;10.80;96.00
10089;DHT22;51898;49.864;8.550;2024-02-15T06:34:42;10.80;96.00
10089;DHT22;51898;49.864;8.550;2024-02-15T06:38:03;10.80;95.90
10089;DHT22;51898;49.864;8.550;2024-02-15T06:41:23;10.80;95.80
10089;DHT22;51898;49.864;8.550;2024-02-15T06:44:28;10.80;95.70
10089;DHT22;51898;49.864;8.550;2024-02-15T06:47:31;10.80;95.70
10089;DHT22;51898;49.864;8.550;2024-02-15T06:50:32;10.80;95.60
10089;DHT22;51898;49.864;8.550;2024-02-15T06:53:34;10.80;95.40
10089;DHT22;51898;49.864;8.550;2024-02-15T06:56:37;10.80;95.40
10089;DHT22;51898;49.864;8.550;2024-02-15T06:59:42;10.80;95.30
10089;DHT22;51898;49.864;8.550;2024-02-15T07:02:44;10.80;95.30
10089;DHT22;51898;49.864;8.550;2024-02-15T07:05:46;10.90;95.10
10089;DHT22;51898;49.864;8.550;2024-02-15T07:08:49;10.90;95.00
10089;DHT22;51898;49.864;8.550;2024-02-15T07:11:52;10.90;94.80
10089;DHT22;51898;49.864;8.550;2024-02-15T07:14:54;11.00;94.70
10089;DHT22;51898;49.864;8.550;2024-02-15T07:17:56;11.00;94.70
10089;DHT22;51898;49.864;8.550;2024-02-15T07:20:58;11.00;94.60
10089;DHT22;51898;49.864;8.550;2024-02-15T07:24:03;11.00;94.50
10089;DHT22;51898;49.864;8.550;2024-02-15T07:27:06;11.10;94.40
10089;DHT22;51898;49.864;8.550;2024-02-15T07:30:08;11.10;94.20
10089;DHT22;51898;49.864;8.550;2024-02-15T07:33:10;11.10;93.90
10089;DHT22;51898;49.864;8.550;2024-02-15T07:36:12;11.20;93.80
10089;DHT22;51898;49.864;8.550;2024-02-15T07:39:14;11.20;93.60
10089;DHT22;51898;49.864;8.550;2024-02-15T07:42:25;11.30;93.30
10089;DHT22;51898;49.864;8.550;2024-02-15T07:45:27;11.30;92.80
10089;DHT22;51898;49.864;8.550;2024-02-15T07:48:30;11.30;92.60
10089;DHT22;51898;49.864;8.550;2024-02-15T07:51:32;11.40;92.40
10089;DHT22;51898;49.864;8.550;2024-02-15T07:54:33;11.40;92.20
10089;DHT22;51898;49.864;8.550;2024-02-15T07:57:35;11.40;92.10
10089;DHT22;51898;49.864;8.550;2024-02-15T08:00:37;11.50;92.00
10089;DHT22;51898;49.864;8.550;2024-02-15T08:03:40;11.60;91.80
10089;DHT22;51898;49.864;8.550;2024-02-15T08:06:48;11.60;91.50
10089;DHT22;51898;49.864;8.550;2024-02-15T08:09:50;11.70;91.20
10089;DHT22;51898;49.864;8.550;2024-02-15T08:12:53;11.70;90.80
10089;DHT22;51898;49.864;8.550;2024-02-15T08:15:55;11.80;90.60
10089;DHT22;51898;49.864;8.550;2024-02-15T08:18:57;11.80;90.60
10089;DHT22;51898;49.864;8.550;2024-02-15T08:22:06;11.90;90.40
10089;DHT22;51898;49.864;8.550;2024-02-15T08:25:11;11.90;90.20
10089;DHT22;51898;49.864;8.550;2024-02-15T08:28:13;11.90;90.10
10089;DHT22;51898;49.864;8.550;2024-02-15T08:31:15;11.90;90.10
10089;DHT22;51898;49.864;8.550;2024-02-15T08:34:17;11.90;89.90
10089;DHT22;51898;49.864;8.550;2024-02-15T08:37:20;12.00;89.70
10089;DHT22;51898;49.864;8.550;2024-02-15T08:40:22;12.00;89.50
10089;DHT22;51898;49.864;8.550;2024-02-15T08:43:27;12.00;89.20
10089;DHT22;51898;49.864;8.550;2024-02-15T08:46:29;12.00;89.50
10089;DHT22;51898;49.864;8.550;2024-02-15T08:49:32;12.00;89.20
10089;DHT22;51898;49.864;8.550;2024-02-15T08:52:34;12.10;89.10
10089;DHT22;51898;49.864;8.550;2024-02-15T08:55:39;12.20;88.90
10089;DHT22;51898;49.864;8.550;2024-02-15T08:58:40;12.20;88.70
10089;DHT22;51898;49.864;8.550;2024-02-15T09:01:44;12.30;88.50
10089;DHT22;51898;49.864;8.550;2024-02-15T09:04:47;12.30;88.30
10089;DHT22;51898;49.864;8.550;2024-02-15T09:07:49;12.40;88.10
10089;DHT22;51898;49.864;8.550;2024-02-15T09:10:52;12.50;87.60
10089;DHT22;51898;49.864;8.550;2024-02-15T09:13:55;12.50;88.00
10089;DHT22;51898;49.864;8.550;2024-02-15T09:16:57;12.50;87.60
10089;DHT22;51898;49.864;8.550;2024-02-15T09:19:59;12.60;87.50
10089;DHT22;51898;49.864;8.550;2024-02-15T09:23:00;12.70;87.10
10089;DHT22;51898;49.864;8.550;2024-02-15T09:26:10;12.70;87.30
10089;DHT22;51898;49.864;8.550;2024-02-15T09:29:12;12.80;87.20
10089;DHT22;51898;49.864;8.550;2024-02-15T09:32:14;12.90;86.80
10089;DHT22;51898;49.864;8.550;2024-02-15T09:35:16;12.90;86.20
10089;DHT22;51898;49.864;8.550;2024-02-15T09:38:17;13.00;86.00
10089;DHT22;51898;49.864;8.550;2024-02-15T09:41:21;12.90;86.30
10089;DHT22;51898;49.864;8.550;2024-02-15T09:44:22;13.10;86.40
10089;DHT22;51898;49.864;8.550;2024-02-15T09:47:26;13.10;85.70
10089;DHT22;51898;49.864;8.550;2024-02-15T09:50:31;13.10;85.60
10089;DHT22;51898;49.864;8.550;2024-02-15T09:53:36;13.20;85.40
10089;DHT22;51898;49.864;8.550;2024-02-15T09:56:38;13.30;85.10
10089;DHT22;51898;49.864;8.550;2024-02-15T09:59:41;13.20;84.40
10089;DHT22;51898;49.864;8.550;2024-02-15T10:02:49;13.30;84.70
10089;DHT22;51898;49.864;8.550;2024-02-15T10:05:51;13.30;84.20
10089;DHT22;51898;49.864;8.550;2024-02-15T10:08:53;13.30;84.30
10089;DHT22;51898;49.864;8.550;2024-02-15T10:12:00;13.50;84.20
10089;DHT22;51898;49.864;8.550;2024-02-15T10:15:02;13.60;83.90
10089;DHT22;51898;49.864;8.550;2024-02-15T10:18:08;13.70;83.40
10089;DHT22;51898;49.864;8.550;2024-02-15T10:21:28;13.80;82.60
10089;DHT22;51898;49.864;8.550;2024-02-15T10:24:32;13.80;82.70
10089;DHT22;51898;49.864;8.550;2024-02-15T10:27:33;13.90;82.70
10089;DHT22;51898;49.864;8.550;2024-02-15T10:30:42;14.00;82.10
10089;DHT22;51898;49.864;8.550;2024-02-15T10:33:47;14.20;81.80
10089;DHT22;51898;49.864;8.550;2024-02-15T10:36:50;14.30;81.20
10089;DHT22;51898;49.864;8.550;2024-02-15T10:40:05;14.40;80.90
10089;DHT22;51898;49.864;8.550;2024-02-15T10:43:10;14.50;80.50
10089;DHT22;51898;49.864;8.550;2024-02-15T10:46:15;14.70;80.70
10089;DHT22;51898;49.864;8.550;2024-02-15T10:49:23;14.90;80.10
10089;DHT22;51898;49.864;8.550;2024-02-15T10:52:31;15.00;79.30
10089;DHT22;51898;49.864;8.550;2024-02-15T10:55:48;15.10;78.50
10089;DHT22;51898;49.864;8.550;2024-02-15T10:59:10;15.30;78.40
10089;DHT22;51898;49.864;8.550;2024-02-15T11:02:29;15.40;77.80
10089;DHT22;51898;49.864;8.550;2024-02-15T11:05:34;15.50;77.70
10089;DHT22;51898;49.864;8.550;2024-02-15T11:08:36;15.60;77.70
10089;DHT22;51898;49.864;8.550;2024-02-15T11:11:40;15.60;76.80
10089;DHT22;51898;49.864;8.550;2024-02-15T11:14:48;15.50;76.60
10089;DHT22;51898;49.864;8.550;2024-02-15T11:17:50;15.60;76.40
10089;DHT22;51898;49.864;8.550;2024-02-15T11:20:58;15.60;75.30
10089;DHT22;51898;49.864;8.550;2024-02-15T11:24:30;15.70;75.60
10089;DHT22;51898;49.864;8.550;2024-02-15T11:27:38;15.70;74.60
10089;DHT22;51898;49.864;8.550;2024-02-15T11:30:41;15.60;74.80
10089;DHT22;51898;49.864;8.550;2024-02-15T11:33:43;15.70;74.50
10089;DHT22;51898;49.864;8.550;2024-02-15T11:36:47;15.70;74.50
10089;DHT22;51898;49.864;8.550;2024-02-15T11:39:58;15.80;74.40
10089;DHT22;51898;49.864;8.550;2024-02-15T11:43:00;15.90;73.80
10089;DHT22;51898;49.864;8.550;2024-02-15T11:46:03;15.90;73.80
10089;DHT22;51898;49.864;8.550;2024-02-15T11:49:05;16.00;73.10
10089;DHT22;51898;49.864;8.550;2024-02-15T11:52:10;16.00;71.50
10089;DHT22;51898;49.864;8.550;2024-02-15T11:55:12;15.90;71.40
10089;DHT22;51898;49.864;8.550;2024-02-15T11:58:16;15.90;72.10
10089;DHT22;51898;49.864;8.550;2024-02-15T12:01:23;16.00;72.10
10089;DHT22;51898;49.864;8.550;2024-02-15T12:04:44;16.10;72.30
10089;DHT22;51898;49.864;8.550;2024-02-15T12:08:06;16.10;71.60
10089;DHT22;51898;49.864;8.550;2024-02-15T12:11:26;16.20;71.70
10089;DHT22;51898;49.864;8.550;2024-02-15T12:14:47;16.30;72.40
10089;DHT22;51898;49.864;8.550;2024-02-15T12:18:19;16.40;72.10
10089;DHT22;51898;49.864;8.550;2024-02-15T12:21:39;16.50;71.70
10089;DHT22;51898;49.864;8.550;2024-02-15T12:24:43;16.70;71.00
10089;DHT22;51898;49.864;8.550;2024-02-15T12:27:45;16.80;70.40
10089;DHT22;51898;49.864;8.550;2024-02-15T12:30:55;16.80;71.40
10089;DHT22;51898;49.864;8.550;2024-02-15T12:34:05;16.90;71.50
10089;DHT22;51898;49.864;8.550;2024-02-15T12:37:10;17.00;71.30
10089;DHT22;51898;49.864;8.550;2024-02-15T12:40:19;17.00;71.00
10089;DHT22;51898;49.864;8.550;2024-02-15T12:43:20;17.20;70.70
10089;DHT22;51898;49.864;8.550;2024-02-15T12:46:22;17.10;70.90
10089;DHT22;51898;49.864;8.550;2024-02-15T12:52:36;17.20;69.20
10089;DHT22;51898;49.864;8.550;2024-02-15T12:55:39;17.30;69.20
10089;DHT22;51898;49.864;8.550;2024-02-15T12:58:41;17.40;68.70
10089;DHT22;51898;49.864;8.550;2024-02-15T13:01:45;17.30;68.40
10089;DHT22;51898;49.864;8.550;2024-02-15T13:04:49;17.30;69.00
10089;DHT22;51898;49.864;8.550;2024-02-15T13:07:52;17.30;69.10
10089;DHT22;51898;49.864;8.550;2024-02-15T13:10:56;17.30;68.00
10089;DHT22;51898;49.864;8.550;2024-02-15T13:13:58;17.30;68.50
10089;DHT22;51898;49.864;8.550;2024-02-15T13:17:00;17.20;67.80
10089;DHT22;51898;49.864;8.550;2024-02-15T13:20:04;17.10;68.60
10089;DHT22;51898;49.864;8.550;2024-02-15T13:23:08;17.10;68.30
10089;DHT22;51898;49.864;8.550;2024-02-15T13:26:11;17.00;69.10
10089;DHT22;51898;49.864;8.550;2024-02-15T13:29:13;17.00;68.00
10089;DHT22;51898;49.864;8.550;2024-02-15T13:32:15;16.80;69.00
10089;DHT22;51898;49.864;8.550;2024-02-15T13:35:18;16.80;69.20
10089;DHT22;51898;49.864;8.550;2024-02-15T13:38:21;16.70;68.90
10089;DHT22;51898;49.864;8.550;2024-02-15T13:41:26;16.60;69.00
10089;DHT22;51898;49.864;8.550;2024-02-15T13:44:28;16.40;69.30
10089;DHT22;51898;49.864;8.550;2024-02-15T13:47:32;16.20;70.10
10089;DHT22;51898;49.864;8.550;2024-02-15T13:50:33;16.20;70.70
10089;DHT22;51898;49.864;8.550;2024-02-15T13:53:35;16.10;69.80
10089;DHT22;51898;49.864;8.550;2024-02-15T13:56:37;16.10;70.10
10089;DHT22;51898;49.864;8.550;2024-02-15T13:59:39;16.10;70.60
10089;DHT22;51898;49.864;8.550;2024-02-15T14:02:41;16.10;70.60
10089;DHT22;51898;49.864;8.550;2024-02-15T14:05:44;16.20;69.90
10089;DHT22;51898;49.864;8.550;2024-02-15T14:08:49;16.20;68.90
10089;DHT22;51898;49.864;8.550;2024-02-15T14:11:50;16.20;69.80
10089;DHT22;51898;49.864;8.550;2024-02-15T14:14:52;16.20;70.00
10089;DHT22;51898;49.864;8.550;2024-02-15T14:17:54;16.30;69.70
10089;DHT22;51898;49.864;8.550;2024-02-15T14:20:57;16.40;69.00
10089;DHT22;51898;49.864;8.550;2024-02-15T14:24:01;16.40;69.30
10089;DHT22;51898;49.864;8.550;2024-02-15T14:27:05;16.40;69.10
10089;DHT22;51898;49.864;8.550;2024-02-15T14:30:07;16.50;68.80
10089;DHT22;51898;49.864;8.550;2024-02-15T14:33:27;16.60;69.50
10089;DHT22;51898;49.864;8.550;2024-02-15T14:36:32;16.60;68.30
10089;DHT22;51898;49.864;8.550;2024-02-15T14:39:34;16.60;68.20
10089;DHT22;51898;49.864;8.550;2024-02-15T14:42:36;16.60;68.10
10089;DHT22;51898;49.864;8.550;2024-02-15T14:45:39;16.60;68.10
10089;DHT22;51898;49.864;8.550;2024-02-15T14:48:44;16.50;68.20
10089;DHT22;51898;49.864;8.550;2024-02-15T14:51:49;16.50;68.20
10089;DHT22;51898;49.864;8.550;2024-02-15T14:54:51;16.40;68.00
10089;DHT22;51898;49.864;8.550;2024-02-15T14:57:53;16.30;68.70
10089;DHT22;51898;49.864;8.550;2024-02-15T15:00:55;16.30;69.10
10089;DHT22;51898;49.864;8.550;2024-02-15T15:04:01;16.30;69.10
10089;DHT22;51898;49.864;8.550;2024-02-15T15:07:07;16.30;69.40
10089;DHT22;51898;49.864;8.550;2024-02-15T15:10:27;16.20;69.30
10089;DHT22;51898;49.864;8.550;2024-02-15T15:13:47;16.00;69.30
10089;DHT22;51898;49.864;8.550;2024-02-15T15:16:49;15.90;70.00
10089;DHT22;51898;49.864;8.550;2024-02-15T15:19:51;15.90;70.40
10089;DHT22;51898;49.864;8.550;2024-02-15T15:22:53;15.90;70.60
10089;DHT22;51898;49.864;8.550;2024-02-15T15:25:55;15.80;70.00
10089;DHT22;51898;49.864;8.550;2024-02-15T15:28:58;15.70;69.60
10089;DHT22;51898;49.864;8.550;2024-02-15T15:32:01;15.50;70.40
10089;DHT22;51898;49.864;8.550;2024-02-15T15:35:04;15.40;71.80
10089;DHT22;51898;49.864;8.550;2024-02-15T15:38:05;15.40;71.40
10089;DHT22;51898;49.864;8.550;2024-02-15T15:41:07;15.30;71.90
10089;DHT22;51898;49.864;8.550;2024-02-15T15:44:11;15.30;72.30
10089;DHT22;51898;49.864;8.550;2024-02-15T15:47:13;15.20;71.40
10089;DHT22;51898;49.864;8.550;2024-02-15T15:50:15;15.20;72.30
10089;DHT22;51898;49.864;8.550;2024-02-15T15:53:17;15.10;72.00
10089;DHT22;51898;49.864;8.550;2024-02-15T15:56:19;15.10;72.70
10089;DHT22;51898;49.864;8.550;2024-02-15T15:59:21;15.10;72.80
10089;DHT22;51898;49.864;8.550;2024-02-15T16:02:23;15.10;72.40
10089;DHT22;51898;49.864;8.550;2024-02-15T16:05:25;15.10;72.90
10089;DHT22;51898;49.864;8.550;2024-02-15T16:08:26;15.00;73.00
10089;DHT22;51898;49.864;8.550;2024-02-15T16:11:28;15.00;73.70
10089;DHT22;51898;49.864;8.550;2024-02-15T16:14:31;14.90;74.00
10089;DHT22;51898;49.864;8.550;2024-02-15T16:17:33;14.90;74.30
10089;DHT22;51898;49.864;8.550;2024-02-15T16:20:37;14.80;74.40
10089;DHT22;51898;49.864;8.550;2024-02-15T16:23:40;14.70;74.70
10089;DHT22;51898;49.864;8.550;2024-02-15T16:26:42;14.70;75.20
10089;DHT22;51898;49.864;8.550;2024-02-15T16:29:43;14.60;75.20
10089;DHT22;51898;49.864;8.550;2024-02-15T16:32:45;14.60;75.20
10089;DHT22;51898;49.864;8.550;2024-02-15T16:35:47;14.50;75.30
10089;DHT22;51898;49.864;8.550;2024-02-15T16:38:49;14.50;75.30
10089;DHT22;51898;49.864;8.550;2024-02-15T16:41:51;14.50;75.50
10089;DHT22;51898;49.864;8.550;2024-02-15T16:44:56;14.50;75.40
10089;DHT22;51898;49.864;8.550;2024-02-15T16:47:58;14.40;75.70
10089;DHT22;51898;49.864;8.550;2024-02-15T16:51:03;14.40;75.60
10089;DHT22;51898;49.864;8.550;2024-02-15T16:54:08;14.30;75.50
10089;DHT22;51898;49.864;8.550;2024-02-15T16:57:10;14.30;75.50
10089;DHT22;51898;49.864;8.550;2024-02-15T17:00:16;14.20;75.80
10089;DHT22;51898;49.864;8.550;2024-02-15T17:03:21;14.10;77.00
10089;DHT22;51898;49.864;8.550;2024-02-15T17:06:23;14.00;77.30
10089;DHT22;51898;49.864;8.550;2024-02-15T17:09:25;14.00;77.30
10089;DHT22;51898;49.864;8.550;2024-02-15T17:12:27;13.90;77.70
10089;DHT22;51898;49.864;8.550;2024-02-15T17:15:30;13.80;78.20
10089;DHT22;51898;49.864;8.550;2024-02-15T17:18:32;13.70;79.20
10089;DHT22;51898;49.864;8.550;2024-02-15T17:21:41;13.60;79.80
10089;DHT22;51898;49.864;8.550;2024-02-15T17:24:43;13.50;80.50
10089;DHT22;51898;49.864;8.550;2024-02-15T17:27:45;13.50;81.30
10089;DHT22;51898;49.864;8.550;2024-02-15T17:30:47;13.40;81.70
10089;DHT22;51898;49.864;8.550;2024-02-15T17:33:49;13.40;81.60
10089;DHT22;51898;49.864;8.550;2024-02-15T17:36:52;13.30;82.10
10089;DHT22;51898;49.864;8.550;2024-02-15T17:39:53;13.30;82.00
10089;DHT22;51898;49.864;8.550;2024-02-15T17:42:55;13.20;81.80
10089;DHT22;51898;49.864;8.550;2024-02-15T17:45:57;13.20;81.50
10089;DHT22;51898;49.864;8.550;2024-02-15T17:49:04;13.20;81.10
10089;DHT22;51898;49.864;8.550;2024-02-15T17:52:07;13.20;80.50
10089;DHT22;51898;49.864;8.550;2024-02-15T17:55:10;13.30;79.80
10089;DHT22;51898;49.864;8.550;2024-02-15T17:58:12;13.30;80.00
10089;DHT22;51898;49.864;8.550;2024-02-15T18:01:14;13.20;79.40
10089;DHT22;51898;49.864;8.550;2024-02-15T18:04:16;13.20;79.80
10089;DHT22;51898;49.864;8.550;2024-02-15T18:07:18;13.30;79.30
10089;DHT22;51898;49.864;8.550;2024-02-15T18:10:20;13.30;78.70
10089;DHT22;51898;49.864;8.550;2024-02-15T18:13:23;13.30;78.40
10089;DHT22;51898;49.864;8.550;2024-02-15T18:16:25;13.30;77.90
10089;DHT22;51898;49.864;8.550;2024-02-15T18:19:27;13.30;77.50
10089;DHT22;51898;49.864;8.550;2024-02-15T18:22:29;13.20;77.20
10089;DHT22;51898;49.864;8.550;2024-02-15T18:25:32;13.30;77.40
10089;DHT22;51898;49.864;8.550;2024-02-15T18:28:33;13.20;77.00
10089;DHT22;51898;49.864;8.550;2024-02-15T18:31:35;13.20;76.70
10089;DHT22;51898;49.864;8.550;2024-02-15T18:34:38;13.20;76.80
10089;DHT22;51898;49.864;8.550;2024-02-15T18:37:41;13.20;76.70
10089;DHT22;51898;49.864;8.550;2024-02-15T18:40:44;13.20;76.50
10089;DHT22;51898;49.864;8.550;2024-02-15T18:43:45;13.20;76.30
10089;DHT22;51898;49.864;8.550;2024-02-15T18:46:51;13.20;76.80
10089;DHT22;51898;49.864;8.550;2024-02-15T18:49:53;13.20;78.40
10089;DHT22;51898;49.864;8.550;2024-02-15T18:53:01;13.10;79.00
10089;DHT22;51898;49.864;8.550;2024-02-15T18:56:03;13.10;78.90
10089;DHT22;51898;49.864;8.550;2024-02-15T18:59:05;12.90;79.40
10089;DHT22;51898;49.864;8.550;2024-02-15T19:02:08;12.90;79.40
10089;DHT22;51898;49.864;8.550;2024-02-15T19:05:09;12.90;79.70
10089;DHT22;51898;49.864;8.550;2024-02-15T19:08:19;12.80;79.70
10089;DHT22;51898;49.864;8.550;2024-02-15T19:11:21;12.80;79.70
10089;DHT22;51898;49.864;8.550;2024-02-15T19:14:24;12.80;79.80
10089;DHT22;51898;49.864;8.550;2024-02-15T19:17:26;12.70;80.20
10089;DHT22;51898;49.864;8.550;2024-02-15T19:20:28;12.60;80.70
10089;DHT22;51898;49.864;8.550;2024-02-15T19:23:31;12.60;81.00